sensor_id;sensor_type;location;lat;lon;timestamp;temperature;humidity
774;DHT22;370;48.810;9.150;2023-05-16T00:01:11;11.90;37.50
774;DHT22;370;48.810;9.150;2023-05-16T00:03:38;12.00;38.10
774;DHT22;370;48.810;9.150;2023-05-16T00:06:08;12.00;38.40
774;DHT22;370;48.810;9.150;2023-05-16T00:08:35;12.00;38.60
774;DHT22;370;48.810;9.150;2023-05-16T00:11:02;12.00;38.70
774;DHT22;370;48.810;9.150;2023-05-16T00:13:29;12.00;39.40
774;DHT22;370;48.810;9.150;2023-05-16T00:15:56;12.00;40.00
774;DHT22;370;48.810;9.150;2023-05-16T00:18:23;12.10;39.90
774;DHT22;370;48.810;9.150;2023-05-16T00:20:51;12.10;39.80
774;DHT22;370;48.810;9.150;2023-05-16T00:23:21;12.10;39.60
774;DHT22;370;48.810;9.150;2023-05-16T00:25:48;12.20;39.30
774;DHT22;370;48.810;9.150;2023-05-16T00:28:15;12.20;40.20
774;DHT22;370;48.810;9.150;2023-05-16T00:30:42;12.30;38.10
774;DHT22;370;48.810;9.150;2023-05-16T00:33:08;12.40;37.70
774;DHT22;370;48.810;9.150;2023-05-16T00:35:35;12.50;36.70
774;DHT22;370;48.810;9.150;2023-05-16T00:38:02;12.60;35.60
774;DHT22;370;48.810;9.150;2023-05-16T00:40:30;12.60;34.60
774;DHT22;370;48.810;9.150;2023-05-16T00:42:57;12.70;34.00
774;DHT22;370;48.810;9.150;2023-05-16T00:45:24;12.80;32.90
774;DHT22;370;48.810;9.150;2023-05-16T00:47:51;12.80;31.20
774;DHT22;370;48.810;9.150;2023-05-16T00:50:18;12.70;31.90
774;DHT22;370;48.810;9.150;2023-05-16T00:52:45;12.70;32.80
774;DHT22;370;48.810;9.150;2023-05-16T00:55:12;12.80;31.20
774;DHT22;370;48.810;9.150;2023-05-16T00:57:40;12.80;30.10
774;DHT22;370;48.810;9.150;2023-05-16T01:00:09;12.80;30.70
774;DHT22;370;48.810;9.150;2023-05-16T01:02:37;12.70;30.50
774;DHT22;370;48.810;9.150;2023-05-16T01:05:04;12.70;31.40
774;DHT22;370;48.810;9.150;2023-05-16T01:07:31;12.70;30.10
774;DHT22;370;48.810;9.150;2023-05-16T01:09:58;12.70;29.40
774;DHT22;370;48.810;9.150;2023-05-16T01:12:30;12.60;30.20
774;DHT22;370;48.810;9.150;2023-05-16T01:15:08;12.60;30.80
774;DHT22;370;48.810;9.150;2023-05-16T01:17:44;12.40;32.50
774;DHT22;370;48.810;9.150;2023-05-16T01:20:32;12.40;32.50
774;DHT22;370;48.810;9.150;2023-05-16T01:23:13;12.30;34.60
774;DHT22;370;48.810;9.150;2023-05-16T01:25:55;12.30;35.60
774;DHT22;370;48.810;9.150;2023-05-16T01:28:24;12.30;36.10
774;DHT22;370;48.810;9.150;2023-05-16T01:30:52;12.30;34.80
774;DHT22;370;48.810;9.150;2023-05-16T01:33:18;12.30;35.40
774;DHT22;370;48.810;9.150;2023-05-16T01:35:54;12.40;33.50
774;DHT22;370;48.810;9.150;2023-05-16T01:38:24;12.40;32.50
774;DHT22;370;48.810;9.150;2023-05-16T01:40:54;12.30;32.50
774;DHT22;370;48.810;9.150;2023-05-16T01:43:32;12.30;33.70
774;DHT22;370;48.810;9.150;2023-05-16T01:46:03;12.30;32.80
774;DHT22;370;48.810;9.150;2023-05-16T01:48:38;12.20;33.30
774;DHT22;370;48.810;9.150;2023-05-16T01:51:09;12.30;37.70
774;DHT22;370;48.810;9.150;2023-05-16T01:53:37;12.40;34.40
774;DHT22;370;48.810;9.150;2023-05-16T01:56:09;12.40;34.30
774;DHT22;370;48.810;9.150;2023-05-16T01:58:38;12.50;33.80
774;DHT22;370;48.810;9.150;2023-05-16T02:01:05;12.60;32.00
774;DHT22;370;48.810;9.150;2023-05-16T02:03:32;12.60;30.60
774;DHT22;370;48.810;9.150;2023-05-16T02:05:59;12.70;30.60
774;DHT22;370;48.810;9.150;2023-05-16T02:08:27;12.60;29.90
774;DHT22;370;48.810;9.150;2023-05-16T02:10:54;12.60;30.00
774;DHT22;370;48.810;9.150;2023-05-16T02:13:21;12.60;29.10
774;DHT22;370;48.810;9.150;2023-05-16T02:15:49;12.60;29.30
774;DHT22;370;48.810;9.150;2023-05-16T02:18:16;12.50;29.80
774;DHT22;370;48.810;9.150;2023-05-16T02:20:43;12.50;30.40
774;DHT22;370;48.810;9.150;2023-05-16T02:23:10;12.50;32.60
774;DHT22;370;48.810;9.150;2023-05-16T02:25:36;12.60;30.70
774;DHT22;370;48.810;9.150;2023-05-16T02:28:03;12.60;30.50
774;DHT22;370;48.810;9.150;2023-05-16T02:30:31;12.70;29.60
774;DHT22;370;48.810;9.150;2023-05-16T02:32:59;12.70;29.50
774;DHT22;370;48.810;9.150;2023-05-16T02:35:26;12.80;28.30
774;DHT22;370;48.810;9.150;2023-05-16T02:37:53;12.80;28.30
774;DHT22;370;48.810;9.150;2023-05-16T02:40:20;12.90;28.10
774;DHT22;370;48.810;9.150;2023-05-16T02:42:47;12.90;27.40
774;DHT22;370;48.810;9.150;2023-05-16T02:45:13;12.90;25.40
774;DHT22;370;48.810;9.150;2023-05-16T02:47:40;13.00;25.30
774;DHT22;370;48.810;9.150;2023-05-16T02:50:09;13.00;27.50
774;DHT22;370;48.810;9.150;2023-05-16T02:52:36;13.00;28.00
774;DHT22;370;48.810;9.150;2023-05-16T02:55:03;13.00;26.10
774;DHT22;370;48.810;9.150;2023-05-16T02:57:31;13.00;26.10
774;DHT22;370;48.810;9.150;2023-05-16T02:59:57;13.10;25.40
774;DHT22;370;48.810;9.150;2023-05-16T03:02:24;13.10;25.10
774;DHT22;370;48.810;9.150;2023-05-16T03:04:51;13.00;24.30
774;DHT22;370;48.810;9.150;2023-05-16T03:07:19;12.90;25.10
774;DHT22;370;48.810;9.150;2023-05-16T03:09:46;12.80;25.60
774;DHT22;370;48.810;9.150;2023-05-16T03:12:13;12.70;26.10
774;DHT22;370;48.810;9.150;2023-05-16T03:14:40;12.70;29.10
774;DHT22;370;48.810;9.150;2023-05-16T03:17:07;12.80;27.00
774;DHT22;370;48.810;9.150;2023-05-16T03:19:34;12.80;26.20
774;DHT22;370;48.810;9.150;2023-05-16T03:22:00;12.90;26.90
774;DHT22;370;48.810;9.150;2023-05-16T03:24:29;12.90;26.30
774;DHT22;370;48.810;9.150;2023-05-16T03:26:56;12.80;26.40
774;DHT22;370;48.810;9.150;2023-05-16T03:29:24;12.70;27.40
774;DHT22;370;48.810;9.150;2023-05-16T03:31:51;12.60;28.00
774;DHT22;370;48.810;9.150;2023-05-16T03:34:18;12.50;29.20
774;DHT22;370;48.810;9.150;2023-05-16T03:37:19;12.50;31.90
774;DHT22;370;48.810;9.150;2023-05-16T03:39:47;12.50;31.60
774;DHT22;370;48.810;9.150;2023-05-16T03:42:14;12.50;32.20
774;DHT22;370;48.810;9.150;2023-05-16T03:44:41;12.40;31.10
774;DHT22;370;48.810;9.150;2023-05-16T03:47:08;12.50;32.60
774;DHT22;370;48.810;9.150;2023-05-16T03:49:35;12.50;33.00
774;DHT22;370;48.810;9.150;2023-05-16T03:52:02;12.50;33.30
774;DHT22;370;48.810;9.150;2023-05-16T03:54:29;12.50;32.60
774;DHT22;370;48.810;9.150;2023-05-16T03:56:57;12.50;34.00
774;DHT22;370;48.810;9.150;2023-05-16T03:59:24;12.60;34.40
774;DHT22;370;48.810;9.150;2023-05-16T04:01:51;12.70;32.80
774;DHT22;370;48.810;9.150;2023-05-16T04:04:17;12.60;31.70
774;DHT22;370;48.810;9.150;2023-05-16T04:06:45;12.70;32.50
774;DHT22;370;48.810;9.150;2023-05-16T04:09:11;12.70;31.70
774;DHT22;370;48.810;9.150;2023-05-16T04:11:38;12.70;32.90
774;DHT22;370;48.810;9.150;2023-05-16T04:14:06;12.70;32.80
774;DHT22;370;48.810;9.150;2023-05-16T04:16:33;12.70;32.80
774;DHT22;370;48.810;9.150;2023-05-16T04:19:00;12.80;32.90
774;DHT22;370;48.810;9.150;2023-05-16T04:21:28;12.90;30.60
774;DHT22;370;48.810;9.150;2023-05-16T04:23:55;13.00;29.90
774;DHT22;370;48.810;9.150;2023-05-16T04:26:22;13.00;29.80
774;DHT22;370;48.810;9.150;2023-05-16T04:28:49;12.90;30.00
774;DHT22;370;48.810;9.150;2023-05-16T04:31:17;13.00;29.20
774;DHT22;370;48.810;9.150;2023-05-16T04:33:44;13.10;29.60
774;DHT22;370;48.810;9.150;2023-05-16T04:36:11;13.20;29.20
774;DHT22;370;48.810;9.150;2023-05-16T04:38:38;13.30;27.00
774;DHT22;370;48.810;9.150;2023-05-16T04:41:04;13.40;26.40
774;DHT22;370;48.810;9.150;2023-05-16T04:43:31;13.40;24.90
774;DHT22;370;48.810;9.150;2023-05-16T04:45:58;13.40;25.10
774;DHT22;370;48.810;9.150;2023-05-16T04:48:27;13.50;24.70
774;DHT22;370;48.810;9.150;2023-05-16T04:50:53;13.40;25.10
774;DHT22;370;48.810;9.150;2023-05-16T04:53:20;13.20;27.10
774;DHT22;370;48.810;9.150;2023-05-16T04:55:47;13.30;26.80
774;DHT22;370;48.810;9.150;2023-05-16T04:58:14;13.30;27.20
774;DHT22;370;48.810;9.150;2023-05-16T05:00:41;13.30;27.60
774;DHT22;370;48.810;9.150;2023-05-16T05:03:07;13.50;26.00
774;DHT22;370;48.810;9.150;2023-05-16T05:05:36;13.50;24.60
774;DHT22;370;48.810;9.150;2023-05-16T05:08:03;13.60;24.70
774;DHT22;370;48.810;9.150;2023-05-16T05:10:29;13.50;24.60
774;DHT22;370;48.810;9.150;2023-05-16T05:12:56;13.50;24.60
774;DHT22;370;48.810;9.150;2023-05-16T05:15:23;13.40;26.60
774;DHT22;370;48.810;9.150;2023-05-16T05:17:50;13.50;25.10
774;DHT22;370;48.810;9.150;2023-05-16T05:20:17;13.60;24.70
774;DHT22;370;48.810;9.150;2023-05-16T05:22:45;13.50;24.60
774;DHT22;370;48.810;9.150;2023-05-16T05:25:13;13.70;23.80
774;DHT22;370;48.810;9.150;2023-05-16T05:27:40;13.80;24.40
774;DHT22;370;48.810;9.150;2023-05-16T05:30:07;13.70;23.60
774;DHT22;370;48.810;9.150;2023-05-16T05:32:34;13.90;21.60
774;DHT22;370;48.810;9.150;2023-05-16T05:35:01;13.80;21.80
774;DHT22;370;48.810;9.150;2023-05-16T05:37:28;13.80;22.60
774;DHT22;370;48.810;9.150;2023-05-16T05:39:57;13.90;21.20
774;DHT22;370;48.810;9.150;2023-05-16T05:42:23;13.90;21.20
774;DHT22;370;48.810;9.150;2023-05-16T05:44:51;13.90;21.60
774;DHT22;370;48.810;9.150;2023-05-16T05:47:17;14.00;20.90
774;DHT22;370;48.810;9.150;2023-05-16T05:49:45;13.90;21.00
774;DHT22;370;48.810;9.150;2023-05-16T05:52:11;13.90;21.60
774;DHT22;370;48.810;9.150;2023-05-16T05:54:38;13.80;21.30
774;DHT22;370;48.810;9.150;2023-05-16T05:57:07;13.80;22.20
774;DHT22;370;48.810;9.150;2023-05-16T05:59:34;13.80;22.40
774;DHT22;370;48.810;9.150;2023-05-16T06:02:01;13.70;23.10
774;DHT22;370;48.810;9.150;2023-05-16T06:04:28;13.80;24.00
774;DHT22;370;48.810;9.150;2023-05-16T06:06:55;14.00;21.20
774;DHT22;370;48.810;9.150;2023-05-16T06:09:22;14.10;20.70
774;DHT22;370;48.810;9.150;2023-05-16T06:11:49;14.10;20.40
774;DHT22;370;48.810;9.150;2023-05-16T06:14:19;14.20;19.90
774;DHT22;370;48.810;9.150;2023-05-16T06:16:45;14.10;19.50
774;DHT22;370;48.810;9.150;2023-05-16T06:19:12;14.00;19.90
774;DHT22;370;48.810;9.150;2023-05-16T06:21:40;14.00;21.20
774;DHT22;370;48.810;9.150;2023-05-16T06:24:08;14.10;20.40
774;DHT22;370;48.810;9.150;2023-05-16T06:26:35;14.30;20.70
774;DHT22;370;48.810;9.150;2023-05-16T06:29:02;14.60;17.90
774;DHT22;370;48.810;9.150;2023-05-16T06:31:31;14.80;17.10
774;DHT22;370;48.810;9.150;2023-05-16T06:33:58;14.80;15.50
774;DHT22;370;48.810;9.150;2023-05-16T06:36:24;14.90;15.70
774;DHT22;370;48.810;9.150;2023-05-16T06:38:51;14.90;14.10
774;DHT22;370;48.810;9.150;2023-05-16T06:41:18;14.70;14.30
774;DHT22;370;48.810;9.150;2023-05-16T06:43:46;14.60;14.80
774;DHT22;370;48.810;9.150;2023-05-16T06:46:13;14.50;15.30
774;DHT22;370;48.810;9.150;2023-05-16T06:48:41;14.40;16.80
774;DHT22;370;48.810;9.150;2023-05-16T06:51:07;14.30;16.70
774;DHT22;370;48.810;9.150;2023-05-16T06:53:34;14.30;17.80
774;DHT22;370;48.810;9.150;2023-05-16T06:56:01;14.30;16.70
774;DHT22;370;48.810;9.150;2023-05-16T06:58:29;14.30;16.70
774;DHT22;370;48.810;9.150;2023-05-16T07:01:05;14.30;16.70
774;DHT22;370;48.810;9.150;2023-05-16T07:03:31;14.30;16.70
774;DHT22;370;48.810;9.150;2023-05-16T07:05:59;14.30;16.10
774;DHT22;370;48.810;9.150;2023-05-16T07:08:26;14.30;16.30
774;DHT22;370;48.810;9.150;2023-05-16T07:10:53;14.30;16.70
774;DHT22;370;48.810;9.150;2023-05-16T07:13:20;14.30;16.70
774;DHT22;370;48.810;9.150;2023-05-16T07:15:47;14.30;16.00
774;DHT22;370;48.810;9.150;2023-05-16T07:18:14;14.40;15.20
774;DHT22;370;48.810;9.150;2023-05-16T07:20:41;14.40;14.50
774;DHT22;370;48.810;9.150;2023-05-16T07:23:09;14.30;13.20
774;DHT22;370;48.810;9.150;2023-05-16T07:25:36;14.30;13.30
774;DHT22;370;48.810;9.150;2023-05-16T07:28:04;14.30;13.40
774;DHT22;370;48.810;9.150;2023-05-16T07:30:30;14.20;10.80
774;DHT22;370;48.810;9.150;2023-05-16T07:32:57;14.20;9.60
774;DHT22;370;48.810;9.150;2023-05-16T07:35:24;14.20;11.50
774;DHT22;370;48.810;9.150;2023-05-16T07:37:51;14.30;8.70
774;DHT22;370;48.810;9.150;2023-05-16T07:40:20;14.40;8.40
774;DHT22;370;48.810;9.150;2023-05-16T07:42:50;14.70;8.20
774;DHT22;370;48.810;9.150;2023-05-16T07:45:17;15.10;7.40
774;DHT22;370;48.810;9.150;2023-05-16T07:47:44;15.40;5.30
774;DHT22;370;48.810;9.150;2023-05-16T07:50:10;15.50;4.70
774;DHT22;370;48.810;9.150;2023-05-16T07:52:37;15.50;4.30
774;DHT22;370;48.810;9.150;2023-05-16T07:55:05;15.30;4.10
774;DHT22;370;48.810;9.150;2023-05-16T07:57:33;15.20;4.90
774;DHT22;370;48.810;9.150;2023-05-16T08:00:01;15.10;6.10
774;DHT22;370;48.810;9.150;2023-05-16T08:02:28;15.20;6.10
774;DHT22;370;48.810;9.150;2023-05-16T08:04:55;15.20;4.70
774;DHT22;370;48.810;9.150;2023-05-16T08:07:23;15.30;4.10
774;DHT22;370;48.810;9.150;2023-05-16T08:09:50;15.20;5.00
774;DHT22;370;48.810;9.150;2023-05-16T08:12:17;15.10;5.40
774;DHT22;370;48.810;9.150;2023-05-16T08:14:45;15.30;5.60
774;DHT22;370;48.810;9.150;2023-05-16T08:17:12;15.40;4.70
774;DHT22;370;48.810;9.150;2023-05-16T08:19:39;15.30;5.30
774;DHT22;370;48.810;9.150;2023-05-16T08:22:06;15.20;6.10
774;DHT22;370;48.810;9.150;2023-05-16T08:24:34;15.20;6.50
774;DHT22;370;48.810;9.150;2023-05-16T08:27:01;15.10;6.10
774;DHT22;370;48.810;9.150;2023-05-16T08:29:28;15.10;6.60
774;DHT22;370;48.810;9.150;2023-05-16T08:31:57;15.10;6.70
774;DHT22;370;48.810;9.150;2023-05-16T08:34:24;15.00;6.70
774;DHT22;370;48.810;9.150;2023-05-16T08:36:51;14.90;7.10
774;DHT22;370;48.810;9.150;2023-05-16T08:39:18;14.90;7.00
774;DHT22;370;48.810;9.150;2023-05-16T08:41:45;14.80;7.20
774;DHT22;370;48.810;9.150;2023-05-16T08:44:12;14.70;7.20
774;DHT22;370;48.810;9.150;2023-05-16T08:46:49;14.50;8.10
774;DHT22;370;48.810;9.150;2023-05-16T08:49:19;14.50;8.10
774;DHT22;370;48.810;9.150;2023-05-16T08:51:46;14.50;8.10
774;DHT22;370;48.810;9.150;2023-05-16T08:54:15;14.50;8.10
774;DHT22;370;48.810;9.150;2023-05-16T08:56:43;14.30;10.00
774;DHT22;370;48.810;9.150;2023-05-16T08:59:11;14.50;10.20
774;DHT22;370;48.810;9.150;2023-05-16T09:01:38;14.50;9.60
774;DHT22;370;48.810;9.150;2023-05-16T09:04:07;14.50;10.00
774;DHT22;370;48.810;9.150;2023-05-16T09:06:35;14.60;10.20
774;DHT22;370;48.810;9.150;2023-05-16T09:09:02;14.50;10.40
774;DHT22;370;48.810;9.150;2023-05-16T09:11:32;14.60;9.40
774;DHT22;370;48.810;9.150;2023-05-16T09:13:59;14.80;9.90
774;DHT22;370;48.810;9.150;2023-05-16T09:16:26;14.90;9.30
774;DHT22;370;48.810;9.150;2023-05-16T09:18:54;15.00;8.40
774;DHT22;370;48.810;9.150;2023-05-16T09:21:22;15.10;8.50
774;DHT22;370;48.810;9.150;2023-05-16T09:23:51;15.30;7.50
774;DHT22;370;48.810;9.150;2023-05-16T09:26:18;15.40;6.80
774;DHT22;370;48.810;9.150;2023-05-16T09:28:46;15.70;6.90
774;DHT22;370;48.810;9.150;2023-05-16T09:31:20;15.90;6.00
774;DHT22;370;48.810;9.150;2023-05-16T09:33:48;16.20;3.90
774;DHT22;370;48.810;9.150;2023-05-16T09:36:15;16.20;4.20
774;DHT22;370;48.810;9.150;2023-05-16T09:38:42;16.30;2.90
774;DHT22;370;48.810;9.150;2023-05-16T09:41:11;16.10;2.70
774;DHT22;370;48.810;9.150;2023-05-16T09:43:39;15.80;4.90
774;DHT22;370;48.810;9.150;2023-05-16T09:46:06;15.60;6.70
774;DHT22;370;48.810;9.150;2023-05-16T09:48:33;15.60;6.90
774;DHT22;370;48.810;9.150;2023-05-16T09:51:00;15.80;6.00
774;DHT22;370;48.810;9.150;2023-05-16T09:53:31;15.90;5.60
774;DHT22;370;48.810;9.150;2023-05-16T09:56:02;16.20;3.90
774;DHT22;370;48.810;9.150;2023-05-16T09:58:31;16.60;1.60
774;DHT22;370;48.810;9.150;2023-05-16T10:01:02;17.10;1.00
774;DHT22;370;48.810;9.150;2023-05-16T10:03:31;17.70;1.00
774;DHT22;370;48.810;9.150;2023-05-16T10:05:59;18.10;1.00
774;DHT22;370;48.810;9.150;2023-05-16T10:08:26;18.20;1.00
774;DHT22;370;48.810;9.150;2023-05-16T10:10:54;18.20;1.00
774;DHT22;370;48.810;9.150;2023-05-16T10:13:23;18.30;1.00
774;DHT22;370;48.810;9.150;2023-05-16T10:15:54;18.30;1.00
774;DHT22;370;48.810;9.150;2023-05-16T10:18:25;18.20;1.00
774;DHT22;370;48.810;9.150;2023-05-16T10:20:56;18.10;1.00
774;DHT22;370;48.810;9.150;2023-05-16T10:23:24;18.20;1.00
774;DHT22;370;48.810;9.150;2023-05-16T10:26:22;18.30;1.00
774;DHT22;370;48.810;9.150;2023-05-16T10:28:50;18.80;1.00
774;DHT22;370;48.810;9.150;2023-05-16T10:38:04;18.80;1.00
774;DHT22;370;48.810;9.150;2023-05-16T10:40:32;18.00;1.00
774;DHT22;370;48.810;9.150;2023-05-16T10:43:01;17.50;1.00
774;DHT22;370;48.810;9.150;2023-05-16T10:45:28;17.10;1.00
774;DHT22;370;48.810;9.150;2023-05-16T10:47:56;16.80;1.00
774;DHT22;370;48.810;9.150;2023-05-16T10:50:54;16.60;1.00
774;DHT22;370;48.810;9.150;2023-05-16T10:53:30;16.30;1.80
774;DHT22;370;48.810;9.150;2023-05-16T10:59:39;15.60;5.70
774;DHT22;370;48.810;9.150;2023-05-16T11:02:20;15.40;8.70
774;DHT22;370;48.810;9.150;2023-05-16T11:04:48;15.30;8.70
774;DHT22;370;48.810;9.150;2023-05-16T11:07:17;15.00;10.50
774;DHT22;370;48.810;9.150;2023-05-16T11:09:52;14.90;11.30
774;DHT22;370;48.810;9.150;2023-05-16T11:12:36;14.90;11.90
774;DHT22;370;48.810;9.150;2023-05-16T11:15:20;14.80;12.50
774;DHT22;370;48.810;9.150;2023-05-16T11:17:47;14.70;13.30
774;DHT22;370;48.810;9.150;2023-05-16T11:20:29;14.50;16.10
774;DHT22;370;48.810;9.150;2023-05-16T11:23:22;14.40;15.50
774;DHT22;370;48.810;9.150;2023-05-16T11:25:54;14.20;16.40
774;DHT22;370;48.810;9.150;2023-05-16T11:28:23;14.10;15.10
774;DHT22;370;48.810;9.150;2023-05-16T11:30:51;14.00;16.50
774;DHT22;370;48.810;9.150;2023-05-16T11:33:38;14.10;15.50
774;DHT22;370;48.810;9.150;2023-05-16T11:36:06;14.10;13.20
774;DHT22;370;48.810;9.150;2023-05-16T11:38:34;14.10;13.40
774;DHT22;370;48.810;9.150;2023-05-16T11:41:05;14.00;12.60
774;DHT22;370;48.810;9.150;2023-05-16T11:43:40;14.10;11.80
774;DHT22;370;48.810;9.150;2023-05-16T11:46:10;14.10;12.10
774;DHT22;370;48.810;9.150;2023-05-16T11:48:38;13.90;12.70
774;DHT22;370;48.810;9.150;2023-05-16T11:51:04;13.90;12.00
774;DHT22;370;48.810;9.150;2023-05-16T11:53:41;14.00;13.00
774;DHT22;370;48.810;9.150;2023-05-16T11:56:10;14.10;11.20
774;DHT22;370;48.810;9.150;2023-05-16T11:58:37;14.20;10.80
774;DHT22;370;48.810;9.150;2023-05-16T12:01:05;14.30;10.70
774;DHT22;370;48.810;9.150;2023-05-16T12:03:32;14.30;11.60
774;DHT22;370;48.810;9.150;2023-05-16T12:06:01;14.30;10.50
774;DHT22;370;48.810;9.150;2023-05-16T12:08:28;14.40;10.20
774;DHT22;370;48.810;9.150;2023-05-16T12:10:55;14.40;7.60
774;DHT22;370;48.810;9.150;2023-05-16T12:13:24;14.40;6.40
774;DHT22;370;48.810;9.150;2023-05-16T12:15:52;14.50;6.20
774;DHT22;370;48.810;9.150;2023-05-16T12:18:19;14.60;5.20
774;DHT22;370;48.810;9.150;2023-05-16T12:20:46;14.60;6.60
774;DHT22;370;48.810;9.150;2023-05-16T12:23:13;14.80;6.30
774;DHT22;370;48.810;9.150;2023-05-16T12:25:44;14.80;3.80
774;DHT22;370;48.810;9.150;2023-05-16T12:28:12;14.90;2.40
774;DHT22;370;48.810;9.150;2023-05-16T12:30:43;15.10;2.30
774;DHT22;370;48.810;9.150;2023-05-16T12:33:13;15.20;1.00
774;DHT22;370;48.810;9.150;2023-05-16T12:35:41;15.40;1.00
774;DHT22;370;48.810;9.150;2023-05-16T12:38:10;15.60;1.00
774;DHT22;370;48.810;9.150;2023-05-16T12:40:38;15.60;1.00
774;DHT22;370;48.810;9.150;2023-05-16T12:43:12;15.70;1.00
774;DHT22;370;48.810;9.150;2023-05-16T12:45:41;15.80;1.00
774;DHT22;370;48.810;9.150;2023-05-16T12:48:11;15.60;1.00
774;DHT22;370;48.810;9.150;2023-05-16T12:50:39;15.60;1.00
774;DHT22;370;48.810;9.150;2023-05-16T12:53:10;15.70;1.00
774;DHT22;370;48.810;9.150;2023-05-16T12:55:38;15.80;1.00
774;DHT22;370;48.810;9.150;2023-05-16T12:58:06;15.90;1.00
774;DHT22;370;48.810;9.150;2023-05-16T13:00:33;15.90;1.00
774;DHT22;370;48.810;9.150;2023-05-16T13:03:02;16.00;1.00
774;DHT22;370;48.810;9.150;2023-05-16T13:05:29;15.90;1.00
774;DHT22;370;48.810;9.150;2023-05-16T13:07:56;15.70;1.00
774;DHT22;370;48.810;9.150;2023-05-16T13:10:23;15.50;1.00
774;DHT22;370;48.810;9.150;2023-05-16T13:12:50;15.40;1.00
774;DHT22;370;48.810;9.150;2023-05-16T13:15:18;15.30;1.00
774;DHT22;370;48.810;9.150;2023-05-16T13:17:44;15.30;1.00
774;DHT22;370;48.810;9.150;2023-05-16T13:20:14;15.20;1.00
774;DHT22;370;48.810;9.150;2023-05-16T13:22:42;15.20;1.00
774;DHT22;370;48.810;9.150;2023-05-16T13:25:09;15.00;1.00
774;DHT22;370;48.810;9.150;2023-05-16T13:27:37;14.70;1.00
774;DHT22;370;48.810;9.150;2023-05-16T13:30:05;14.70;1.00
774;DHT22;370;48.810;9.150;2023-05-16T13:32:32;14.60;1.00
774;DHT22;370;48.810;9.150;2023-05-16T13:34:59;14.60;1.00
774;DHT22;370;48.810;9.150;2023-05-16T13:37:27;14.70;1.00
774;DHT22;370;48.810;9.150;2023-05-16T13:39:54;14.70;1.00
774;DHT22;370;48.810;9.150;2023-05-16T13:42:21;14.50;1.00
774;DHT22;370;48.810;9.150;2023-05-16T13:44:48;14.50;1.00
774;DHT22;370;48.810;9.150;2023-05-16T13:47:15;14.50;1.00
774;DHT22;370;48.810;9.150;2023-05-16T13:49:42;14.40;1.00
774;DHT22;370;48.810;9.150;2023-05-16T13:52:09;14.40;1.10
774;DHT22;370;48.810;9.150;2023-05-16T13:54:37;14.50;1.00
774;DHT22;370;48.810;9.150;2023-05-16T13:57:05;14.50;2.10
774;DHT22;370;48.810;9.150;2023-05-16T13:59:32;14.50;1.00
774;DHT22;370;48.810;9.150;2023-05-16T14:01:58;14.50;1.00
774;DHT22;370;48.810;9.150;2023-05-16T14:04:25;14.50;1.00
774;DHT22;370;48.810;9.150;2023-05-16T14:06:52;14.40;1.00
774;DHT22;370;48.810;9.150;2023-05-16T14:09:19;14.30;1.00
774;DHT22;370;48.810;9.150;2023-05-16T14:11:48;14.30;1.30
774;DHT22;370;48.810;9.150;2023-05-16T14:14:14;14.40;1.30
774;DHT22;370;48.810;9.150;2023-05-16T14:16:41;14.60;1.00
774;DHT22;370;48.810;9.150;2023-05-16T14:19:10;14.70;1.00
774;DHT22;370;48.810;9.150;2023-05-16T14:21:37;15.10;1.00
774;DHT22;370;48.810;9.150;2023-05-16T14:24:05;15.30;1.00
774;DHT22;370;48.810;9.150;2023-05-16T14:26:32;15.30;1.00
774;DHT22;370;48.810;9.150;2023-05-16T14:29:00;15.20;1.00
774;DHT22;370;48.810;9.150;2023-05-16T14:31:27;15.20;1.00
774;DHT22;370;48.810;9.150;2023-05-16T14:33:53;15.10;1.00
774;DHT22;370;48.810;9.150;2023-05-16T14:36:20;15.10;1.00
774;DHT22;370;48.810;9.150;2023-05-16T14:38:47;15.10;1.00
774;DHT22;370;48.810;9.150;2023-05-16T14:41:14;15.00;1.00
774;DHT22;370;48.810;9.150;2023-05-16T14:43:41;15.10;1.00
774;DHT22;370;48.810;9.150;2023-05-16T14:46:09;15.20;1.00
774;DHT22;370;48.810;9.150;2023-05-16T14:48:36;15.20;1.00
774;DHT22;370;48.810;9.150;2023-05-16T14:51:03;15.30;1.00
774;DHT22;370;48.810;9.150;2023-05-16T14:53:30;15.30;1.00
774;DHT22;370;48.810;9.150;2023-05-16T14:55:57;15.20;1.00
774;DHT22;370;48.810;9.150;2023-05-16T14:58:24;15.20;1.00
774;DHT22;370;48.810;9.150;2023-05-16T15:00:51;15.40;1.00
774;DHT22;370;48.810;9.150;2023-05-16T15:03:19;15.30;1.00
774;DHT22;370;48.810;9.150;2023-05-16T15:05:46;15.40;1.00
774;DHT22;370;48.810;9.150;2023-05-16T15:08:13;15.30;1.00
774;DHT22;370;48.810;9.150;2023-05-16T15:10:39;15.30;1.00
774;DHT22;370;48.810;9.150;2023-05-16T15:13:06;15.30;1.00
774;DHT22;370;48.810;9.150;2023-05-16T15:15:33;15.40;1.00
774;DHT22;370;48.810;9.150;2023-05-16T15:18:03;15.60;1.00
774;DHT22;370;48.810;9.150;2023-05-16T15:20:31;15.80;1.00
774;DHT22;370;48.810;9.150;2023-05-16T15:22:58;16.00;1.00
774;DHT22;370;48.810;9.150;2023-05-16T15:25:26;16.10;1.00
774;DHT22;370;48.810;9.150;2023-05-16T15:27:53;16.00;1.00
774;DHT22;370;48.810;9.150;2023-05-16T15:30:20;15.90;1.00
774;DHT22;370;48.810;9.150;2023-05-16T15:32:47;15.90;1.00
774;DHT22;370;48.810;9.150;2023-05-16T15:35:14;15.90;1.00
774;DHT22;370;48.810;9.150;2023-05-16T15:37:43;15.70;1.00
774;DHT22;370;48.810;9.150;2023-05-16T15:40:10;15.60;1.00
774;DHT22;370;48.810;9.150;2023-05-16T15:42:37;15.60;1.00
774;DHT22;370;48.810;9.150;2023-05-16T15:45:08;15.70;1.00
774;DHT22;370;48.810;9.150;2023-05-16T15:47:35;15.90;1.00
774;DHT22;370;48.810;9.150;2023-05-16T15:50:02;16.20;1.00
774;DHT22;370;48.810;9.150;2023-05-16T15:52:29;16.10;1.00
774;DHT22;370;48.810;9.150;2023-05-16T15:54:58;15.90;1.00
774;DHT22;370;48.810;9.150;2023-05-16T15:57:25;15.80;1.00
774;DHT22;370;48.810;9.150;2023-05-16T15:59:52;15.80;1.00
774;DHT22;370;48.810;9.150;2023-05-16T16:02:19;15.80;1.00
774;DHT22;370;48.810;9.150;2023-05-16T16:04:45;15.60;1.00
774;DHT22;370;48.810;9.150;2023-05-16T16:07:13;15.50;1.00
774;DHT22;370;48.810;9.150;2023-05-16T16:09:40;15.40;1.00
774;DHT22;370;48.810;9.150;2023-05-16T16:12:08;15.30;1.00
774;DHT22;370;48.810;9.150;2023-05-16T16:14:35;15.20;1.00
774;DHT22;370;48.810;9.150;2023-05-16T16:17:02;15.10;1.00
774;DHT22;370;48.810;9.150;2023-05-16T16:19:29;15.10;1.00
774;DHT22;370;48.810;9.150;2023-05-16T16:21:55;15.00;1.00
774;DHT22;370;48.810;9.150;2023-05-16T16:24:22;14.90;1.00
774;DHT22;370;48.810;9.150;2023-05-16T16:26:49;14.80;1.00
774;DHT22;370;48.810;9.150;2023-05-16T16:29:17;14.80;1.00
774;DHT22;370;48.810;9.150;2023-05-16T16:31:44;14.80;1.00
774;DHT22;370;48.810;9.150;2023-05-16T16:34:11;14.80;1.00
774;DHT22;370;48.810;9.150;2023-05-16T16:36:38;14.80;1.00
774;DHT22;370;48.810;9.150;2023-05-16T16:39:05;14.90;1.00
774;DHT22;370;48.810;9.150;2023-05-16T16:41:31;14.90;1.00
774;DHT22;370;48.810;9.150;2023-05-16T16:43:58;15.00;1.00
774;DHT22;370;48.810;9.150;2023-05-16T16:46:26;15.10;1.00
774;DHT22;370;48.810;9.150;2023-05-16T16:48:53;15.20;1.00
774;DHT22;370;48.810;9.150;2023-05-16T16:51:20;15.20;1.00
774;DHT22;370;48.810;9.150;2023-05-16T16:53:47;15.30;1.00
774;DHT22;370;48.810;9.150;2023-05-16T16:56:14;15.40;1.00
774;DHT22;370;48.810;9.150;2023-05-16T16:58:41;15.50;1.00